Terminal Aerodrome Forecast
Issued by NWS Grand Forks, ND

Home | Current Version | Previous Version | Text Only | Print | Product List | Glossary On
Versions: 1 2 3 4 5 6 7 8 9 10 11 12 13 14 15 16 17 18 19 20 21 22 23 24 25 26 27
082
FTUS43 KFGF 262339
TAFGFK
TAF
KGFK 262339Z 2700/2724 28008KT P6SM SCT150
     FM270400 29004KT P6SM SCT250
     FM271700 01004KT P6SM VCSH BKN080=

USA.gov is the U.S. government's official web portal to all federal, state and local government web resources and services.